Time;durP1;ratioP1;P1;durP2;ratioP2;P2;SDS_P1;SDS_P2;PMS_P1;PMS_P2;Temp;Humidity;BMP_temperature;BMP_pressure;BME280_temperature;BME280_humidity;BME280_pressure;Samples;Min_cycle;Max_cycle;Signal;HPM_P1;HPM_P2
2021/11/20 00:00:16;;;;;;;28.17;25.80;;;8.40;91.30;;;;;;5007280;28;20197;-71
2021/11/20 00:02:44;;;;;;;29.35;26.83;;;8.50;90.70;;;;;;4998132;28;20301;-71
2021/11/20 00:05:13;;;;;;;30.45;27.80;;;8.50;90.30;;;;;;5003153;28;20293;-71
2021/11/20 00:07:40;;;;;;;29.30;26.83;;;8.40;91.40;;;;;;5003881;28;20277;-71
2021/11/20 00:10:10;;;;;;;30.80;28.00;;;8.30;91.80;;;;;;5007558;28;20814;-71
2021/11/20 00:12:41;;;;;;;29.42;26.92;;;8.40;91.40;;;;;;5005777;28;20194;-71
2021/11/20 00:15:13;;;;;;;27.52;25.17;;;8.40;91.90;;;;;;5004516;28;20584;-71
2021/11/20 00:17:40;;;;;;;28.73;26.42;;;8.40;91.20;;;;;;5007660;28;20207;-71
2021/11/20 00:20:10;;;;;;;29.75;27.30;;;8.50;90.40;;;;;;5008467;28;20301;-71
2021/11/20 00:22:40;;;;;;;29.92;27.48;;;8.30;90.90;;;;;;5006695;28;20210;-71
2021/11/20 00:25:11;;;;;;;31.17;28.40;;;8.40;90.70;;;;;;5006232;28;20232;-73
2021/11/20 00:27:40;;;;;;;27.45;25.25;;;8.40;90.80;;;;;;5005056;28;20320;-72
2021/11/20 00:30:15;;;;;;;28.55;26.15;;;8.30;90.80;;;;;;5008343;28;20292;-73
2021/11/20 00:32:45;;;;;;;29.60;27.00;;;8.40;90.80;;;;;;5004896;28;20229;-73
2021/11/20 00:35:14;;;;;;;27.42;25.15;;;8.40;90.40;;;;;;5002660;28;20218;-71
2021/11/20 00:37:42;;;;;;;29.67;27.02;;;8.40;90.00;;;;;;5006122;28;20719;-71
2021/11/20 00:40:14;;;;;;;30.83;28.00;;;8.50;90.20;;;;;;5006389;28;20261;-71
2021/11/20 00:42:43;;;;;;;27.77;25.27;;;8.40;89.90;;;;;;5001350;28;20354;-71
2021/11/20 00:45:11;;;;;;;28.30;25.92;;;8.40;90.40;;;;;;5007346;28;20228;-71
2021/11/20 00:47:39;;;;;;;29.17;26.75;;;8.40;90.10;;;;;;5004485;28;20635;-71
2021/11/20 00:50:08;;;;;;;27.98;25.52;;;8.30;90.20;;;;;;5007015;28;20284;-71
2021/11/20 00:52:35;;;;;;;27.60;25.30;;;8.30;90.90;;;;;;5003823;28;20273;-71
2021/11/20 00:55:02;;;;;;;27.90;25.67;;;8.30;90.90;;;;;;5008456;28;20285;-71
2021/11/20 00:57:29;;;;;;;28.80;26.25;;;8.40;90.80;;;;;;5002585;28;20209;-71
2021/11/20 00:59:57;;;;;;;173.07;37.35;;;8.40;91.50;;;;;;5007230;28;20285;-71
2021/11/20 01:02:24;;;;;;;28.63;26.17;;;8.30;92.40;;;;;;5008180;28;20202;-71
2021/11/20 01:04:51;;;;;;;28.45;26.00;;;8.40;91.20;;;;;;5004112;28;20358;-71
2021/11/20 01:07:18;;;;;;;29.50;27.00;;;8.40;90.70;;;;;;5008615;28;20560;-71
2021/11/20 01:09:46;;;;;;;29.30;26.80;;;8.40;90.30;;;;;;5006631;28;20321;-71
2021/11/20 01:12:16;;;;;;;31.45;28.65;;;8.40;90.00;;;;;;5002711;28;20276;-71
2021/11/20 01:14:45;;;;;;;30.85;28.10;;;8.40;90.10;;;;;;5004852;28;20216;-71
2021/11/20 01:17:16;;;;;;;30.23;27.55;;;8.40;90.00;;;;;;4999556;28;20301;-71
2021/11/20 01:19:43;;;;;;;28.98;26.65;;;8.40;89.90;;;;;;5004003;28;20202;-71
2021/11/20 01:22:13;;;;;;;31.15;28.25;;;8.30;90.00;;;;;;4998841;28;20234;-71
2021/11/20 01:24:41;;;;;;;29.65;27.10;;;8.40;90.10;;;;;;4998745;28;20332;-71
2021/11/20 01:27:08;;;;;;;29.65;27.05;;;8.40;89.80;;;;;;5006569;28;20201;-71
2021/11/20 01:29:35;;;;;;;29.20;26.80;;;8.40;89.70;;;;;;5005922;28;20256;-71
2021/11/20 01:32:03;;;;;;;31.40;28.52;;;8.30;89.70;;;;;;5008425;28;20272;-71
2021/11/20 01:34:32;;;;;;;29.52;27.08;;;8.40;89.70;;;;;;5004708;28;20589;-71
2021/11/20 01:37:01;;;;;;;30.33;27.85;;;8.30;89.40;;;;;;4999697;28;20198;-71
2021/11/20 01:39:31;;;;;;;31.50;28.73;;;8.20;89.80;;;;;;5007470;28;20293;-71
2021/11/20 01:42:01;;;;;;;32.20;29.23;;;8.30;90.10;;;;;;5007837;28;20300;-71
2021/11/20 01:44:35;;;;;;;32.03;29.23;;;8.30;90.70;;;;;;5002801;28;20790;-71
2021/11/20 01:47:10;;;;;;;31.50;28.80;;;8.30;90.90;;;;;;5007859;28;20233;-71
2021/11/20 01:49:42;;;;;;;30.67;28.05;;;8.30;91.00;;;;;;5004872;28;20193;-71
2021/11/20 01:52:31;;;;;;;66.78;32.90;;;8.20;93.00;;;;;;4999508;28;20293;-71
2021/11/20 01:55:09;;;;;;;31.33;28.48;;;8.30;92.00;;;;;;5000495;28;20226;-71
2021/11/20 01:57:43;;;;;;;30.15;27.55;;;8.30;91.50;;;;;;5006813;28;20217;-71
2021/11/20 02:00:16;;;;;;;29.20;26.70;;;8.30;91.30;;;;;;4999348;28;20257;-71
2021/11/20 02:02:55;;;;;;;30.23;27.52;;;8.40;90.30;;;;;;5004976;28;20229;-71
2021/11/20 02:05:28;;;;;;;32.40;29.38;;;8.40;89.60;;;;;;4995427;28;20237;-71
2021/11/20 02:08:01;;;;;;;28.75;26.55;;;8.30;89.90;;;;;;5002518;28;20720;-70
2021/11/20 02:10:31;;;;;;;29.00;26.55;;;8.30;89.80;;;;;;4999611;28;20795;-71
2021/11/20 02:13:01;;;;;;;29.42;26.90;;;8.40;89.60;;;;;;5005235;28;20782;-71
2021/11/20 02:15:33;;;;;;;29.67;27.13;;;8.30;89.60;;;;;;5005505;28;20644;-71
2021/11/20 02:18:01;;;;;;;28.08;25.70;;;8.40;89.30;;;;;;4999375;28;20687;-72
2021/11/20 02:20:35;;;;;;;29.70;27.00;;;8.40;89.20;;;;;;5005807;28;20310;-72
2021/11/20 02:23:01;;;;;;;28.50;26.17;;;8.30;89.20;;;;;;5006470;28;20245;-72
2021/11/20 02:25:28;;;;;;;30.05;27.17;;;8.30;89.10;;;;;;5003238;28;20214;-72
2021/11/20 02:27:58;;;;;;;30.35;27.92;;;8.30;89.60;;;;;;5004644;28;20642;-72
2021/11/20 02:30:30;;;;;;;30.48;27.88;;;8.30;89.50;;;;;;4996578;28;20198;-72
2021/11/20 02:33:00;;;;;;;30.75;28.05;;;8.30;89.90;;;;;;4999309;28;20851;-72
2021/11/20 02:35:31;;;;;;;62.55;29.85;;;8.30;90.00;;;;;;5001363;28;20289;-72
2021/11/20 02:37:58;;;;;;;30.70;28.10;;;8.20;90.80;;;;;;5005126;28;20198;-72
2021/11/20 02:40:27;;;;;;;29.33;26.92;;;8.30;90.30;;;;;;5000557;28;20201;-72
2021/11/20 02:42:54;;;;;;;28.77;26.58;;;8.30;91.40;;;;;;5000596;28;20307;-72
2021/11/20 02:45:27;;;;;;;28.83;26.42;;;8.20;89.90;;;;;;4997713;28;20272;-72
2021/11/20 02:47:54;;;;;;;29.50;27.10;;;8.10;91.20;;;;;;5003973;28;20201;-72
2021/11/20 02:50:34;;;;;;;29.25;26.55;;;8.10;90.50;;;;;;5001893;28;20232;-72
2021/11/20 02:53:02;;;;;;;28.60;26.25;;;8.00;90.90;;;;;;5002360;28;20225;-72
2021/11/20 02:55:29;;;;;;;30.05;27.60;;;8.10;90.60;;;;;;5006111;28;20413;-72
2021/11/20 02:57:56;;;;;;;29.33;26.83;;;8.10;90.20;;;;;;5005740;28;20240;-72
2021/11/20 03:00:23;;;;;;;29.80;27.20;;;8.20;89.90;;;;;;5004405;28;20627;-72
2021/11/20 03:02:52;;;;;;;28.90;26.63;;;8.20;90.70;;;;;;5000334;28;20214;-72
2021/11/20 03:05:20;;;;;;;29.90;27.35;;;8.20;89.90;;;;;;5004554;28;20245;-71
2021/11/20 03:07:47;;;;;;;29.35;26.75;;;8.10;90.40;;;;;;5001561;28;20237;-71
2021/11/20 03:10:14;;;;;;;29.60;27.10;;;8.20;90.20;;;;;;5006217;28;20281;-71
2021/11/20 03:12:41;;;;;;;29.30;26.92;;;8.20;94.30;;;;;;5003435;28;20205;-71
2021/11/20 03:15:09;;;;;;;29.20;26.80;;;8.10;92.60;;;;;;5001833;28;20813;-71
2021/11/20 03:17:36;;;;;;;30.00;27.30;;;8.10;91.80;;;;;;5006424;28;20698;-71
2021/11/20 03:20:09;;;;;;;29.67;26.98;;;8.20;90.20;;;;;;5003487;28;20273;-71
2021/11/20 03:22:44;;;;;;;29.90;27.55;;;8.20;90.20;;;;;;5000170;28;20194;-71
2021/11/20 03:25:11;;;;;;;67.00;30.45;;;8.10;90.20;;;;;;5000404;28;20217;-70
2021/11/20 03:27:38;;;;;;;31.20;28.40;;;8.10;92.10;;;;;;5007160;28;20289;-71
2021/11/20 03:30:07;;;;;;;46.85;29.52;;;8.10;90.90;;;;;;5008333;28;20722;-71
2021/11/20 03:32:34;;;;;;;30.85;27.88;;;8.10;93.70;;;;;;5002682;28;20304;-71
2021/11/20 03:35:01;;;;;;;32.03;29.13;;;8.20;91.20;;;;;;5008449;28;20194;-71
2021/11/20 03:37:30;;;;;;;31.15;28.45;;;8.10;91.20;;;;;;5009513;28;20237;-71
2021/11/20 03:39:57;;;;;;;31.30;28.27;;;8.00;91.00;;;;;;5007841;28;20287;-71
2021/11/20 03:42:24;;;;;;;30.27;27.67;;;8.00;91.10;;;;;;5005634;28;20715;-71
2021/11/20 03:44:51;;;;;;;31.75;28.85;;;8.00;90.70;;;;;;5006288;28;20332;-71
2021/11/20 03:47:19;;;;;;;32.42;29.63;;;7.90;91.00;;;;;;5008473;28;20698;-71
2021/11/20 03:49:46;;;;;;;31.17;28.10;;;8.00;90.90;;;;;;5008016;28;20286;-71
2021/11/20 03:52:15;;;;;;;31.00;28.25;;;8.20;91.10;;;;;;5011082;28;20288;-71
2021/11/20 03:54:44;;;;;;;32.90;29.75;;;8.20;90.40;;;;;;5007368;28;20277;-72
2021/11/20 03:57:11;;;;;;;34.28;31.10;;;8.10;91.40;;;;;;5010420;28;20277;-72
2021/11/20 03:59:39;;;;;;;30.38;27.60;;;8.10;91.10;;;;;;5007023;28;20684;-72
2021/11/20 04:02:06;;;;;;;31.38;28.58;;;8.10;91.30;;;;;;5008878;28;20289;-72
2021/11/20 04:04:33;;;;;;;31.63;28.70;;;8.10;90.60;;;;;;5007436;28;20302;-72
2021/11/20 04:07:02;;;;;;;30.85;27.85;;;8.20;89.90;;;;;;5003101;28;20249;-71
2021/11/20 04:09:29;;;;;;;32.85;29.85;;;8.10;89.70;;;;;;5006219;28;20221;-71
2021/11/20 04:11:58;;;;;;;31.83;28.98;;;8.10;89.70;;;;;;5005376;28;20281;-71
2021/11/20 04:14:27;;;;;;;44.35;30.38;;;8.00;90.50;;;;;;5006618;28;20304;-71
2021/11/20 04:16:54;;;;;;;31.75;28.98;;;8.00;90.60;;;;;;5004615;28;20264;-71
2021/11/20 04:19:22;;;;;;;34.97;29.42;;;8.00;90.60;;;;;;5008363;28;20676;-70
2021/11/20 04:21:50;;;;;;;133.43;38.35;;;8.00;92.70;;;;;;5008049;28;20640;-71
2021/11/20 04:24:18;;;;;;;31.42;28.42;;;8.00;94.20;;;;;;5008454;28;20241;-71
2021/11/20 04:26:45;;;;;;;31.85;28.75;;;8.10;92.10;;;;;;5007306;28;20369;-71
2021/11/20 04:29:14;;;;;;;32.72;29.63;;;8.10;91.20;;;;;;5009387;28;20638;-71
2021/11/20 04:31:41;;;;;;;32.75;29.65;;;8.20;90.40;;;;;;4996820;28;20233;-72
2021/11/20 04:34:09;;;;;;;31.75;28.75;;;8.00;90.70;;;;;;5008105;28;20218;-71
2021/11/20 04:36:36;;;;;;;31.27;28.33;;;8.00;90.60;;;;;;5004462;28;20747;-71
2021/11/20 04:39:04;;;;;;;30.67;27.92;;;8.00;92.60;;;;;;5009425;28;20198;-71
2021/11/20 04:41:32;;;;;;;31.42;28.60;;;8.00;91.50;;;;;;5006392;28;20309;-71
2021/11/20 04:43:59;;;;;;;31.50;28.40;;;8.00;90.70;;;;;;5000194;28;20301;-70
2021/11/20 04:46:28;;;;;;;31.83;28.92;;;8.00;90.20;;;;;;5003520;28;20344;-70
2021/11/20 04:48:55;;;;;;;30.98;28.10;;;8.00;90.40;;;;;;5008089;28;20256;-70
2021/11/20 04:51:25;;;;;;;30.88;27.85;;;7.90;90.30;;;;;;5006678;28;20299;-71
2021/11/20 04:53:53;;;;;;;29.77;27.00;;;7.90;90.60;;;;;;5008890;28;20228;-70
2021/11/20 04:56:22;;;;;;;30.48;27.55;;;8.00;90.60;;;;;;5006168;28;20229;-71
2021/11/20 04:58:50;;;;;;;30.23;27.33;;;7.90;90.60;;;;;;5007337;28;20289;-71
2021/11/20 05:01:18;;;;;;;29.88;27.13;;;8.10;90.20;;;;;;5005344;28;20205;-70
2021/11/20 05:03:47;;;;;;;29.50;26.63;;;8.10;89.70;;;;;;5006937;28;20430;-70
2021/11/20 05:06:15;;;;;;;30.05;27.20;;;8.10;89.50;;;;;;5006153;28;20228;-71
2021/11/20 05:08:42;;;;;;;28.10;25.80;;;8.00;89.90;;;;;;5006912;28;20222;-70
2021/11/20 05:11:10;;;;;;;28.40;25.90;;;8.00;90.10;;;;;;5005491;28;20289;-71
2021/11/20 05:13:37;;;;;;;28.02;25.52;;;8.10;89.80;;;;;;5005029;28;20244;-70
2021/11/20 05:16:05;;;;;;;29.25;26.65;;;8.10;90.00;;;;;;5001117;28;20206;-71
2021/11/20 05:18:33;;;;;;;28.50;26.05;;;8.20;89.60;;;;;;5006719;28;20245;-71
2021/11/20 05:21:03;;;;;;;27.55;25.23;;;8.20;89.60;;;;;;5004956;28;20225;-71
2021/11/20 05:23:31;;;;;;;26.48;24.33;;;8.00;89.90;;;;;;5007715;28;20268;-71
2021/11/20 05:25:58;;;;;;;27.10;24.70;;;8.10;89.70;;;;;;5003833;28;20309;-72
2021/11/20 05:28:25;;;;;;;27.55;25.25;;;8.10;90.50;;;;;;5006494;28;20494;-71
2021/11/20 05:30:53;;;;;;;30.08;27.73;;;8.10;89.90;;;;;;5003961;28;20236;-71
2021/11/20 05:33:28;;;;;;;29.50;27.02;;;8.20;89.60;;;;;;5004666;28;20684;-72
2021/11/20 05:35:56;;;;;;;30.58;27.88;;;8.20;89.60;;;;;;5004685;28;20285;-72
2021/11/20 05:38:24;;;;;;;28.27;25.90;;;8.10;89.50;;;;;;5004504;28;20225;-71
2021/11/20 05:40:51;;;;;;;28.08;25.60;;;8.10;89.70;;;;;;5004504;28;20194;-71
2021/11/20 05:43:20;;;;;;;27.88;25.70;;;8.10;90.20;;;;;;5005330;28;20348;-70
2021/11/20 05:46:03;;;;;;;28.05;25.77;;;8.20;89.90;;;;;;5001246;28;20618;-74
2021/11/20 05:48:30;;;;;;;28.38;25.67;;;8.10;90.20;;;;;;5007249;28;20282;-72
2021/11/20 05:50:57;;;;;;;28.90;26.33;;;8.20;90.20;;;;;;5000268;28;20309;-72
2021/11/20 05:53:27;;;;;;;28.27;25.80;;;8.20;90.80;;;;;;5007345;28;20316;-72
2021/11/20 05:55:56;;;;;;;407.50;64.70;;;8.20;91.20;;;;;;4998939;28;20240;-72
2021/11/20 05:58:23;;;;;;;28.52;26.23;;;8.20;91.50;;;;;;5007263;28;20226;-72
2021/11/20 06:00:53;;;;;;;29.38;26.98;;;8.10;92.70;;;;;;5004130;28;20325;-72
2021/11/20 06:03:22;;;;;;;28.15;25.95;;;8.20;91.90;;;;;;5007656;28;20598;-72
2021/11/20 06:05:50;;;;;;;29.75;27.25;;;8.10;91.50;;;;;;5002290;28;20328;-72
2021/11/20 06:08:19;;;;;;;26.73;24.45;;;8.10;91.00;;;;;;5005872;28;20206;-72
2021/11/20 06:10:49;;;;;;;26.40;24.33;;;8.00;91.00;;;;;;5002749;28;20563;-72
2021/11/20 06:13:17;;;;;;;27.77;25.40;;;8.00;90.80;;;;;;5006702;28;20214;-72
2021/11/20 06:15:44;;;;;;;28.88;26.48;;;8.10;91.10;;;;;;5007139;28;20292;-72
2021/11/20 06:18:12;;;;;;;428.85;63.88;;;8.10;90.90;;;;;;5005353;28;20261;-72
2021/11/20 06:20:41;;;;;;;29.58;26.80;;;8.20;93.60;;;;;;5002071;28;20289;-72
2021/11/20 06:23:09;;;;;;;27.90;25.73;;;8.10;94.40;;;;;;5006638;28;20707;-72
2021/11/20 06:25:36;;;;;;;27.65;25.42;;;8.10;93.30;;;;;;5004473;28;20249;-72
2021/11/20 06:28:05;;;;;;;28.13;25.85;;;8.20;92.50;;;;;;5006661;28;20314;-72
2021/11/20 06:30:32;;;;;;;26.10;24.00;;;8.20;93.90;;;;;;5006881;28;20221;-72
2021/11/20 06:33:00;;;;;;;27.25;24.92;;;8.20;90.80;;;;;;4999615;28;20245;-72
2021/11/20 06:35:29;;;;;;;28.75;26.20;;;8.20;90.20;;;;;;5001537;28;20260;-72
2021/11/20 06:37:57;;;;;;;27.23;25.02;;;8.20;89.80;;;;;;5002613;28;20220;-72
2021/11/20 06:40:26;;;;;;;26.58;24.48;;;8.30;89.40;;;;;;5004504;28;20233;-72
2021/11/20 06:42:54;;;;;;;28.42;25.80;;;8.20;89.60;;;;;;5004446;28;20652;-72
2021/11/20 06:45:25;;;;;;;26.30;24.10;;;8.10;90.20;;;;;;4999023;28;20268;-72
2021/11/20 06:47:52;;;;;;;27.73;25.40;;;8.10;89.90;;;;;;5007332;28;20272;-72
2021/11/20 06:50:20;;;;;;;26.40;24.35;;;8.10;89.90;;;;;;5012326;28;20198;-72
2021/11/20 06:52:49;;;;;;;28.17;25.85;;;8.20;89.60;;;;;;5005534;28;20312;-72
2021/11/20 06:55:17;;;;;;;29.05;26.50;;;8.10;90.00;;;;;;5004239;28;20612;-72
2021/11/20 06:57:54;;;;;;;27.63;25.05;;;8.20;90.00;;;;;;5007775;28;20205;-72
2021/11/20 07:00:28;;;;;;;27.63;25.42;;;8.30;89.70;;;;;;5000031;28;20198;-72
2021/11/20 07:02:58;;;;;;;28.80;26.20;;;8.30;89.50;;;;;;5010354;28;20221;-72
2021/11/20 07:05:26;;;;;;;27.70;25.40;;;8.30;89.60;;;;;;5006789;28;20233;-72
2021/11/20 07:07:54;;;;;;;27.17;24.98;;;8.30;90.10;;;;;;5012695;28;20304;-72
2021/11/20 07:10:22;;;;;;;28.42;25.60;;;8.30;90.90;;;;;;5009074;28;20206;-72
2021/11/20 07:12:50;;;;;;;40.17;26.77;;;8.30;90.70;;;;;;5010074;28;20916;-73
2021/11/20 07:15:18;;;;;;;28.05;25.52;;;8.30;94.80;;;;;;5004847;28;20285;-73
2021/11/20 07:17:47;;;;;;;27.60;25.27;;;8.40;94.00;;;;;;5012024;28;20201;-74
2021/11/20 07:20:14;;;;;;;27.77;25.55;;;8.30;90.60;;;;;;5008928;28;20434;-74
2021/11/20 07:22:41;;;;;;;27.63;25.52;;;8.40;89.90;;;;;;5011056;28;20242;-72
2021/11/20 07:25:09;;;;;;;30.75;28.10;;;8.40;89.10;;;;;;5007831;28;20285;-73
2021/11/20 07:27:36;;;;;;;31.30;28.60;;;8.40;89.00;;;;;;5003188;28;20554;-72
2021/11/20 07:30:05;;;;;;;28.67;26.23;;;8.50;88.90;;;;;;5008553;28;20233;-74
2021/11/20 07:32:32;;;;;;;29.08;26.63;;;8.50;88.60;;;;;;5006372;28;20229;-76
2021/11/20 07:35:01;;;;;;;28.58;26.23;;;8.50;88.50;;;;;;5006867;28;20199;-75
2021/11/20 07:37:28;;;;;;;28.95;26.58;;;8.40;88.80;;;;;;5005582;28;20225;-78
2021/11/20 07:39:55;;;;;;;28.80;26.38;;;8.30;89.20;;;;;;5006078;28;20249;-77
2021/11/20 07:42:22;;;;;;;28.17;25.67;;;8.30;89.70;;;;;;5006650;28;20198;-77
2021/11/20 07:44:50;;;;;;;28.15;25.83;;;8.30;89.50;;;;;;5008174;28;20285;-75
2021/11/20 07:47:17;;;;;;;27.85;25.42;;;8.30;89.20;;;;;;5008479;28;20222;-75
2021/11/20 07:49:47;;;;;;;28.58;26.10;;;8.40;89.40;;;;;;5007193;28;20313;-75
2021/11/20 07:52:15;;;;;;;27.88;25.73;;;8.40;90.00;;;;;;5010749;28;20202;-77
2021/11/20 07:54:42;;;;;;;29.42;27.00;;;8.50;89.80;;;;;;5004097;28;20221;-74
2021/11/20 07:57:10;;;;;;;188.77;37.53;;;8.60;89.30;;;;;;5006618;28;20289;-74
2021/11/20 07:59:39;;;;;;;99.72;33.97;;;8.60;89.30;;;;;;5005050;28;20644;-75
2021/11/20 08:02:07;;;;;;;28.23;25.92;;;8.60;91.70;;;;;;5007109;28;20221;-74
2021/11/20 08:04:35;;;;;;;27.40;25.20;;;8.70;90.70;;;;;;5005476;28;20313;-75
2021/11/20 08:07:03;;;;;;;28.48;26.02;;;8.80;88.60;;;;;;5004044;28;20309;-74
2021/11/20 08:09:31;;;;;;;26.33;24.35;;;8.90;88.60;;;;;;5010216;28;20237;-73
2021/11/20 08:11:59;;;;;;;29.75;27.35;;;8.90;88.00;;;;;;5004483;28;20226;-71
2021/11/20 08:14:26;;;;;;;29.13;26.73;;;9.00;87.50;;;;;;5005600;28;20220;-73
2021/11/20 08:16:53;;;;;;;28.17;25.77;;;9.10;86.30;;;;;;5009739;28;20273;-72
2021/11/20 08:19:20;;;;;;;27.42;25.30;;;9.00;86.60;;;;;;5009552;28;20893;-72
2021/11/20 08:21:47;;;;;;;28.58;26.00;;;9.00;89.20;;;;;;5008633;28;20229;-72
2021/11/20 08:24:15;;;;;;;32.10;29.10;;;9.00;88.50;;;;;;5009385;28;20249;-73
2021/11/20 08:26:46;;;;;;;29.97;27.57;;;9.00;87.20;;;;;;5005191;28;20472;-73
2021/11/20 08:29:15;;;;;;;30.20;27.55;;;9.10;87.00;;;;;;5007529;28;20452;-73
2021/11/20 08:31:44;;;;;;;30.75;28.25;;;9.10;87.20;;;;;;5003396;28;20611;-73
2021/11/20 08:34:12;;;;;;;29.77;27.38;;;9.20;87.30;;;;;;5007913;28;20944;-73
2021/11/20 08:36:40;;;;;;;27.07;24.77;;;9.40;87.80;;;;;;5007121;28;20206;-73
2021/11/20 08:39:09;;;;;;;28.70;26.47;;;9.30;87.20;;;;;;5006391;28;20967;-73
2021/11/20 08:41:37;;;;;;;29.07;27.00;;;9.30;87.10;;;;;;5006514;28;20890;-73
2021/11/20 08:44:08;;;;;;;27.07;25.10;;;9.40;87.40;;;;;;4996169;28;20565;-74
2021/11/20 08:46:38;;;;;;;26.00;23.90;;;9.50;86.50;;;;;;5007580;28;20468;-73
2021/11/20 08:49:06;;;;;;;27.57;25.07;;;9.50;90.50;;;;;;5005144;28;20537;-73
2021/11/20 08:51:34;;;;;;;27.07;24.97;;;9.60;89.90;;;;;;5004253;28;20468;-73
2021/11/20 08:54:01;;;;;;;26.07;24.10;;;9.70;88.10;;;;;;5009041;28;20990;-74
2021/11/20 08:56:29;;;;;;;25.37;23.47;;;9.70;88.40;;;;;;5007647;28;20560;-74
2021/11/20 08:58:56;;;;;;;25.77;23.93;;;9.80;87.60;;;;;;5006448;28;20457;-74
2021/11/20 09:01:27;;;;;;;26.60;24.60;;;9.80;86.70;;;;;;5007888;28;20464;-74
2021/11/20 09:03:59;;;;;;;26.70;24.67;;;9.80;86.30;;;;;;4997221;28;20480;-74
2021/11/20 09:06:38;;;;;;;27.73;25.43;;;9.80;86.00;;;;;;5007262;28;20469;-74
2021/11/20 09:09:12;;;;;;;27.77;25.70;;;9.90;85.40;;;;;;4999281;28;21069;-74
2021/11/20 09:11:44;;;;;;;28.00;25.73;;;9.90;88.60;;;;;;5007343;28;20468;-75
2021/11/20 09:14:15;;;;;;;27.70;24.80;;;10.00;86.70;;;;;;5008266;28;20504;-76
2021/11/20 09:16:43;;;;;;;25.57;23.57;;;10.00;88.50;;;;;;5007256;28;20489;-74
2021/11/20 09:19:11;;;;;;;27.13;24.93;;;10.20;89.30;;;;;;5007429;28;20473;-76
2021/11/20 09:21:41;;;;;;;28.27;25.97;;;10.30;88.40;;;;;;5007510;28;20584;-74
2021/11/20 09:24:09;;;;;;;28.07;26.07;;;10.50;86.50;;;;;;5004217;28;20556;-74
2021/11/20 09:26:39;;;;;;;26.87;24.97;;;10.70;84.40;;;;;;5007089;28;20548;-74
2021/11/20 09:29:08;;;;;;;28.97;26.73;;;10.70;83.70;;;;;;5007847;28;20547;-74
2021/11/20 09:31:40;;;;;;;28.47;26.20;;;10.70;85.60;;;;;;5003544;28;20456;-74
2021/11/20 09:34:09;;;;;;;27.23;25.27;;;10.70;83.70;;;;;;5002754;28;20708;-75
2021/11/20 09:36:37;;;;;;;28.50;26.40;;;10.70;82.70;;;;;;5003775;28;20511;-74
2021/11/20 09:39:06;;;;;;;31.03;28.50;;;10.60;81.90;;;;;;5006299;28;20580;-74
2021/11/20 09:41:44;;;;;;;28.87;26.53;;;10.70;82.00;;;;;;5004644;28;20544;-74
2021/11/20 09:44:11;;;;;;;28.97;26.83;;;10.70;81.80;;;;;;4999952;28;20567;-74
2021/11/20 09:46:44;;;;;;;28.67;26.53;;;11.00;80.60;;;;;;5005558;28;20549;-74
2021/11/20 09:49:18;;;;;;;28.43;26.23;;;10.90;80.30;;;;;;5006389;28;20484;-74
2021/11/20 09:51:48;;;;;;;29.23;27.00;;;10.80;80.70;;;;;;5006476;28;20957;-74
2021/11/20 09:54:17;;;;;;;28.20;26.10;;;10.90;80.70;;;;;;5007284;28;20584;-74
2021/11/20 09:56:48;;;;;;;27.07;25.03;;;11.00;80.20;;;;;;5005829;28;20489;-75
2021/11/20 09:59:26;;;;;;;27.70;25.67;;;11.00;79.70;;;;;;5007978;28;20511;-76
2021/11/20 10:01:59;;;;;;;24.50;22.80;;;11.00;79.50;;;;;;5006762;28;20986;-76
2021/11/20 10:04:32;;;;;;;25.17;23.57;;;10.90;79.80;;;;;;5006836;28;20508;-77
2021/11/20 10:07:14;;;;;;;23.57;22.17;;;10.80;79.50;;;;;;5002130;28;20457;-75
2021/11/20 10:09:47;;;;;;;23.53;22.03;;;10.80;79.80;;;;;;4997595;28;20465;-76
2021/11/20 10:12:22;;;;;;;23.17;21.67;;;10.70;79.60;;;;;;4996515;28;20544;-76
2021/11/20 10:14:51;;;;;;;22.77;21.47;;;10.80;78.80;;;;;;5004936;28;20459;-76
2021/11/20 10:17:28;;;;;;;23.87;22.40;;;10.70;79.20;;;;;;5007242;28;20539;-75
2021/11/20 10:20:13;;;;;;;23.90;22.50;;;10.70;79.50;;;;;;5006774;28;20472;-75
2021/11/20 10:22:50;;;;;;;23.47;22.10;;;10.70;79.50;;;;;;5007090;28;20909;-75
2021/11/20 10:25:38;;;;;;;23.77;22.23;;;10.70;79.80;;;;;;5002537;28;20465;-77
2021/11/20 10:28:17;;;;;;;23.60;22.10;;;10.70;79.50;;;;;;5003170;28;21083;-75
2021/11/20 10:30:53;;;;;;;22.83;21.63;;;10.80;79.30;;;;;;5005337;28;20544;-76
2021/11/20 10:33:23;;;;;;;23.33;21.97;;;10.80;79.10;;;;;;5004888;28;20483;-78
2021/11/20 10:36:01;;;;;;;23.37;21.97;;;10.80;78.70;;;;;;5007494;28;20464;-76
2021/11/20 10:38:31;;;;;;;22.80;21.37;;;10.80;79.00;;;;;;5014308;28;20555;-76
2021/11/20 10:41:02;;;;;;;22.63;21.23;;;10.60;79.60;;;;;;5005808;28;20538;-75
2021/11/20 10:43:31;;;;;;;23.13;21.63;;;10.50;80.20;;;;;;5009136;28;20575;-75
2021/11/20 10:46:14;;;;;;;26.07;24.43;;;10.60;79.80;;;;;;5006575;28;20564;-75
2021/11/20 10:48:43;;;;;;;23.90;22.47;;;10.70;79.70;;;;;;5013713;28;20571;-75
2021/11/20 10:51:33;;;;;;;23.20;21.80;;;10.80;79.50;;;;;;5012487;28;21014;-76
2021/11/20 10:54:36;;;;;;;23.80;22.30;;;10.80;79.50;;;;;;5001360;28;21019;-74
2021/11/20 10:57:08;;;;;;;23.00;21.60;;;10.80;78.70;;;;;;5013398;28;20527;-74
2021/11/20 10:59:51;;;;;;;22.53;21.23;;;10.80;78.60;;;;;;5012192;28;20535;-74
2021/11/20 11:02:49;;;;;;;23.23;21.93;;;10.90;77.90;;;;;;5010848;28;20493;-74
2021/11/20 11:05:52;;;;;;;22.40;21.10;;;10.80;77.70;;;;;;5005969;28;20461;-75
2021/11/20 11:08:32;;;;;;;25.13;23.63;;;10.70;79.90;;;;;;5013809;28;21060;-74
2021/11/20 11:11:02;;;;;;;23.20;21.90;;;10.70;79.20;;;;;;5012728;28;21004;-74
2021/11/20 11:13:52;;;;;;;22.70;21.40;;;10.70;79.70;;;;;;5010133;28;20488;-75
2021/11/20 11:16:26;;;;;;;22.60;21.20;;;10.90;78.60;;;;;;5010296;28;20548;-76
2021/11/20 11:18:57;;;;;;;21.83;20.53;;;10.90;78.80;;;;;;5014236;28;20452;-75
2021/11/20 11:21:57;;;;;;;21.50;20.27;;;10.90;78.80;;;;;;5012692;28;20555;-74
2021/11/20 11:24:50;;;;;;;22.80;21.40;;;10.90;78.20;;;;;;5010326;28;20792;-74
2021/11/20 11:27:19;;;;;;;21.80;20.60;;;10.80;78.60;;;;;;5012631;28;20448;-74
2021/11/20 11:30:02;;;;;;;22.83;21.70;;;10.80;78.80;;;;;;5011175;28;20472;-75
2021/11/20 11:32:31;;;;;;;23.43;22.23;;;10.90;78.80;;;;;;5011475;28;20464;-75
2021/11/20 11:35:01;;;;;;;23.53;22.13;;;10.90;78.70;;;;;;5010349;28;20488;-75
2021/11/20 11:37:40;;;;;;;23.03;21.73;;;11.00;78.30;;;;;;5012765;28;20488;-75
2021/11/20 11:40:20;;;;;;;22.60;21.30;;;11.10;77.50;;;;;;5008429;28;20469;-75
2021/11/20 11:42:53;;;;;;;23.57;22.07;;;11.00;77.80;;;;;;5010696;28;20569;-75
2021/11/20 11:45:57;;;;;;;25.30;23.90;;;11.10;76.70;;;;;;5007949;28;20460;-75
2021/11/20 11:48:39;;;;;;;22.80;21.50;;;11.00;77.40;;;;;;5006697;28;20947;-74
2021/11/20 11:51:14;;;;;;;24.07;22.23;;;11.00;77.40;;;;;;5004287;28;20972;-76
2021/11/20 11:54:03;;;;;;;23.90;22.20;;;11.10;77.20;;;;;;5003674;28;20480;-75
2021/11/20 11:56:34;;;;;;;25.27;23.30;;;11.10;78.60;;;;;;5004672;28;21024;-75
2021/11/20 11:59:23;;;;;;;24.40;22.90;;;11.00;78.90;;;;;;5009489;28;20457;-75
2021/11/20 12:02:13;;;;;;;24.60;23.20;;;11.00;78.00;;;;;;5008523;28;20460;-76
2021/11/20 12:04:46;;;;;;;26.93;25.30;;;11.00;78.40;;;;;;5007379;28;21110;-75
2021/11/20 12:07:45;;;;;;;25.20;23.40;;;11.20;77.90;;;;;;5001902;28;20557;-76
2021/11/20 12:10:28;;;;;;;24.40;22.90;;;11.10;77.90;;;;;;5010187;28;20445;-76
2021/11/20 12:13:03;;;;;;;23.57;22.17;;;11.10;78.30;;;;;;5007376;28;20575;-76
2021/11/20 12:15:36;;;;;;;25.23;23.63;;;11.10;77.70;;;;;;5005937;28;20535;-78
2021/11/20 12:18:12;;;;;;;25.43;23.53;;;11.20;77.20;;;;;;5005727;28;20466;-76
2021/11/20 12:20:43;;;;;;;29.00;27.00;;;11.20;77.60;;;;;;5008417;28;20456;-75
2021/11/20 12:23:25;;;;;;;24.40;22.97;;;11.30;77.10;;;;;;5009095;28;20476;-74
2021/11/20 12:25:57;;;;;;;25.90;24.20;;;11.40;76.70;;;;;;5004509;28;20545;-75
2021/11/20 12:28:35;;;;;;;28.63;26.83;;;11.50;76.20;;;;;;4995785;28;20505;-75
2021/11/20 12:31:28;;;;;;;27.23;25.47;;;11.40;75.20;;;;;;5007055;28;21279;-75
2021/11/20 12:34:06;;;;;;;25.67;23.87;;;11.20;75.60;;;;;;4998183;28;20487;-75
2021/11/20 12:37:03;;;;;;;29.37;27.33;;;11.20;76.00;;;;;;5004909;28;20551;-75
2021/11/20 12:39:47;;;;;;;30.17;28.10;;;11.20;76.10;;;;;;5006718;28;21009;-76
2021/11/20 12:42:33;;;;;;;28.80;26.70;;;11.40;75.70;;;;;;5005338;28;20464;-79
2021/11/20 12:45:29;;;;;;;27.50;25.57;;;11.20;75.90;;;;;;5005162;28;20519;-77
2021/11/20 12:48:10;;;;;;;28.03;26.23;;;11.30;75.70;;;;;;5000775;28;21020;-77
2021/11/20 12:50:51;;;;;;;26.67;24.97;;;11.30;75.50;;;;;;5003923;28;20467;-76
2021/11/20 12:53:26;;;;;;;26.27;24.47;;;11.20;75.80;;;;;;4997050;28;20508;-76